Terminal Aerodrome Forecast
Issued by NWS Salt Lake City, UT

Home | Current Version | Previous Version | Text Only | Print | Product List | Glossary On
Versions: 1 2 3 4 5 6 7 8 9 10 11 12 13 14 15 16 17 18 19 20 21 22 23 24 25 26 27 28 29 30 31 32 33 34 35 36 37 38 39 40 41 42 43
000
FTUS45 KSLC 232326
TAFSLC
TAF
KSLC 232326Z 2400/2506 26011KT P6SM VCSH SCT020 BKN050
     FM240300 33007KT P6SM VCSH SCT025 BKN050
     FM240900 31008KT 2SM -SHSN BR BKN015 OVC035
     FM241600 31006KT P6SM VCSH SCT020 BKN050
     FM250300 16006KT P6SM SCT060 BKN120=

USA.gov is the U.S. government's official web portal to all federal, state and local government web resources and services.